Portada
METAR-TAF:

METAR-TAF

Aeroports :

Kashmar, Iran

latitud: 35-16-14N, longitud: 58-28-24E, altitud: 1110 m

Observació

L'informe es va fer fa 25 minuts, a les 08:00 UTC
Vent calma
Temperatura 15°C
Humitat 9%
Pressió 1024 hPa
Visibilitat 10 km o més
sense núvols per sota de 1500 mi sense presència de cumulonimbus.

METAR: OIMQ 120800Z 00000KT CAVOK 15/M17 Q1024

Hora: 11:55 (08:25 UTC)


TAF: manca

Observacions i pronòstics meteorològics de més de 4000 aeroports (METAR i TAF).

Les estacions disponibles són els punts grocs i vermells al mapa.

Posi el ratolí al punt desitjat per veure el nom de l'estació.

Feu clic per veure les observacions i els pronòstics meteorològics.

Per canviar el mapa: feu clic els botons verds amb una creu de color negre per apropar; al botó verd amb un guió per allunyar la imatge; o en les fletxes verdes per a mapes adjacents.


METAR-TAF: